createdAt,value
2018-11-14T00:01:09.468Z,7.7
2018-11-14T00:06:11.855Z,7.6
2018-11-14T00:11:14.295Z,7.5
2018-11-14T00:16:16.724Z,7.4
2018-11-14T00:21:19.192Z,7.3
2018-11-14T00:26:21.597Z,7.2
2018-11-14T00:31:24.072Z,7.1
2018-11-14T00:36:26.530Z,7.1
2018-11-14T00:41:28.924Z,7.1
2018-11-14T00:46:31.356Z,7.1
2018-11-14T00:51:33.820Z,7.2
2018-11-14T00:56:36.243Z,7.2
2018-11-14T01:01:38.786Z,7.1
2018-11-14T01:06:41.133Z,7.1
2018-11-14T01:11:43.629Z,7
2018-11-14T01:16:46.003Z,6.9
2018-11-14T01:21:48.504Z,6.9
2018-11-14T01:26:50.882Z,6.8
2018-11-14T01:31:53.329Z,6.8
2018-11-14T01:36:55.774Z,6.8
2018-11-14T01:41:58.236Z,6.7
2018-11-14T01:47:00.652Z,6.7
2018-11-14T01:52:03.109Z,6.7
2018-11-14T01:57:05.519Z,6.6
2018-11-14T02:02:07.984Z,6.6
2018-11-14T02:07:10.434Z,6.6
2018-11-14T02:12:12.848Z,6.5
2018-11-14T02:17:15.309Z,6.5
2018-11-14T02:22:17.749Z,6.4
2018-11-14T02:27:20.171Z,6.4
2018-11-14T02:32:22.627Z,6.5
2018-11-14T02:37:25.117Z,6.5
2018-11-14T02:42:27.487Z,6.5
2018-11-14T02:47:29.940Z,6.5
2018-11-14T02:52:32.380Z,6.5
2018-11-14T02:57:34.831Z,6.6
2018-11-14T03:02:37.283Z,6.6
2018-11-14T03:07:39.741Z,6.6
2018-11-14T03:12:42.200Z,6.6
2018-11-14T03:17:44.610Z,6.5
2018-11-14T03:22:47.070Z,6.5
2018-11-14T03:27:49.510Z,6.4
2018-11-14T03:32:51.947Z,6.4
2018-11-14T03:37:54.331Z,6.4
2018-11-14T03:42:56.767Z,6.4
2018-11-14T03:47:59.216Z,6.5
2018-11-14T03:53:01.652Z,6.6
2018-11-14T03:58:04.126Z,6.5
2018-11-14T04:03:06.558Z,6.6
2018-11-14T04:08:08.985Z,6.6
2018-11-14T04:13:11.491Z,6.6
2018-11-14T04:18:13.858Z,6.7
2018-11-14T04:23:16.299Z,6.7
2018-11-14T04:28:18.765Z,6.7
2018-11-14T04:33:21.176Z,6.7
2018-11-14T04:38:23.621Z,6.6
2018-11-14T04:43:26.073Z,6.6
2018-11-14T04:48:28.492Z,6.6
2018-11-14T04:53:30.949Z,6.6
2018-11-14T04:58:33.362Z,6.6
2018-11-14T05:03:35.863Z,6.6
2018-11-14T05:08:38.268Z,6.6
2018-11-14T05:13:40.734Z,6.6
2018-11-14T05:18:43.136Z,6.6
2018-11-14T05:23:45.581Z,6.6
2018-11-14T05:28:48.010Z,6.7
2018-11-14T05:33:50.462Z,6.7
2018-11-14T05:38:53.065Z,6.6
2018-11-14T05:43:55.322Z,6.6
2018-11-14T05:48:57.773Z,6.6
2018-11-14T05:54:00.250Z,6.5
2018-11-14T05:59:02.897Z,6.5
2018-11-14T06:04:05.095Z,6.4
2018-11-14T06:09:07.539Z,6.4
2018-11-14T06:14:09.985Z,6.3
2018-11-14T06:19:12.424Z,6.2
2018-11-14T06:24:14.871Z,6.2
2018-11-14T06:29:17.311Z,6.1
2018-11-14T06:34:19.778Z,6
2018-11-14T06:39:22.214Z,6
2018-11-14T06:44:24.669Z,6
2018-11-14T06:49:27.205Z,5.9
2018-11-14T06:54:29.551Z,5.8
2018-11-14T06:59:32.107Z,5.7
2018-11-14T07:04:34.447Z,5.6
2018-11-14T07:09:36.900Z,5.6
2018-11-14T07:14:39.337Z,5.6
2018-11-14T07:19:41.835Z,5.6
2018-11-14T07:24:44.467Z,5.6
2018-11-14T07:29:46.671Z,5.8
2018-11-14T07:34:49.132Z,5.8
2018-11-14T07:39:51.566Z,5.9
2018-11-14T07:44:54.004Z,5.9
2018-11-14T07:49:56.499Z,5.9
2018-11-14T07:54:59.257Z,5.9
2018-11-14T08:00:06.478Z,5.9
2018-11-14T08:05:03.796Z,5.9
2018-11-14T08:10:06.253Z,6
2018-11-14T08:15:08.692Z,6.1
2018-11-14T08:20:11.109Z,6.2
2018-11-14T08:25:13.769Z,6.3
2018-11-14T08:30:16.017Z,6.4
2018-11-14T08:35:18.424Z,6.5
2018-11-14T08:40:20.877Z,6.6
2018-11-14T08:45:23.316Z,6.7
2018-11-14T08:50:25.799Z,6.8
2018-11-14T08:55:28.329Z,6.8
2018-11-14T09:00:30.633Z,6.9
2018-11-14T09:05:33.079Z,7
2018-11-14T09:10:35.529Z,7.1
2018-11-14T09:15:37.962Z,7.2
2018-11-14T09:20:40.491Z,7.3
2018-11-14T09:25:42.839Z,7.5
2018-11-14T09:30:45.330Z,7.9
2018-11-14T09:35:47.710Z,8.2
2018-11-14T09:40:50.341Z,8.3
2018-11-14T09:45:52.602Z,8.3
2018-11-14T09:50:55.079Z,8.2
2018-11-14T09:55:57.490Z,8.1
2018-11-14T10:01:00.167Z,7.9
2018-11-14T10:06:02.407Z,7.9
2018-11-14T10:11:04.810Z,7.9
2018-11-14T10:16:07.249Z,8.2
2018-11-14T10:21:09.740Z,8.8
2018-11-14T10:26:12.190Z,9.2
2018-11-14T10:31:14.550Z,9.5
2018-11-14T10:36:16.989Z,9.6
2018-11-14T10:41:19.446Z,9.6
2018-11-14T10:46:21.882Z,9.4
2018-11-14T10:51:24.315Z,9.5
2018-11-14T10:56:26.768Z,9.8
2018-11-14T11:01:29.201Z,10.8
2018-11-14T11:06:31.636Z,11.8
2018-11-14T11:11:34.094Z,11.6
2018-11-14T11:16:36.624Z,10.9
2018-11-14T11:21:38.959Z,10.5
2018-11-14T11:26:41.418Z,10.6
2018-11-14T11:31:43.920Z,12
2018-11-14T11:36:46.377Z,13.9
2018-11-14T11:41:48.737Z,15
2018-11-14T11:46:51.184Z,14.3
2018-11-14T11:51:53.614Z,13.6
2018-11-14T11:56:56.048Z,13.4
2018-11-14T12:01:58.530Z,13.9
2018-11-14T12:07:00.926Z,14.3
2018-11-14T12:12:03.413Z,15.5
2018-11-14T12:17:05.843Z,16.2
2018-11-14T12:22:08.255Z,17
2018-11-14T12:27:10.755Z,17.5
2018-11-14T12:32:13.137Z,17.5
2018-11-14T12:37:15.642Z,18.4
2018-11-14T12:42:18.010Z,19.5
2018-11-14T12:47:20.455Z,20.3
2018-11-14T12:52:22.912Z,21.4
2018-11-14T13:02:27.802Z,22.5
2018-11-14T13:07:30.228Z,22.2
2018-11-14T13:12:32.675Z,21
2018-11-14T13:17:35.175Z,19.5
2018-11-14T13:22:37.557Z,18.9
2018-11-14T13:27:40.010Z,18
2018-11-14T13:32:42.492Z,16.8
2018-11-14T13:37:44.875Z,16.4
2018-11-14T13:42:47.312Z,16
2018-11-14T13:47:49.761Z,16.3
2018-11-14T13:52:52.201Z,17.5
2018-11-14T13:57:54.627Z,17.1
2018-11-14T14:02:57.137Z,15.5
2018-11-14T14:07:59.567Z,14.1
2018-11-14T14:13:01.963Z,12.9
2018-11-14T14:18:04.451Z,12.1
2018-11-14T14:23:06.853Z,11.5
2018-11-14T14:28:09.355Z,11
2018-11-14T14:33:11.982Z,10.6
2018-11-14T14:38:14.231Z,10.2
2018-11-14T14:43:16.597Z,9.9
2018-11-14T14:48:19.044Z,9.7
2018-11-14T14:53:21.485Z,9.5
2018-11-14T14:58:23.915Z,9.2
2018-11-14T15:03:26.462Z,9.1
2018-11-14T15:08:28.817Z,8.9
2018-11-14T15:13:31.234Z,8.7
2018-11-14T15:18:33.683Z,8.6
2018-11-14T15:23:36.126Z,8.3
2018-11-14T15:28:38.614Z,8.1
2018-11-14T15:33:41.011Z,7.9
2018-11-14T15:38:43.490Z,7.7
2018-11-14T15:43:45.891Z,7.6
2018-11-14T15:48:48.340Z,7.4
2018-11-14T15:53:50.773Z,7.2
2018-11-14T15:58:53.207Z,7.1
2018-11-14T16:03:55.650Z,6.9
2018-11-14T16:08:58.083Z,6.8
2018-11-14T16:14:00.527Z,6.7
2018-11-14T16:19:02.982Z,6.5
2018-11-14T16:24:05.489Z,6.4
2018-11-14T16:29:07.846Z,6.2
2018-11-14T16:34:10.306Z,6.1
2018-11-14T16:39:12.722Z,6.1
2018-11-14T16:44:15.198Z,6.1
2018-11-14T16:49:17.651Z,6
2018-11-14T16:54:20.074Z,6
2018-11-14T16:59:22.509Z,5.8
2018-11-14T17:04:24.977Z,5.7
2018-11-14T17:09:27.402Z,5.6
2018-11-14T17:14:29.944Z,5.5
2018-11-14T17:19:32.305Z,5.4
2018-11-14T17:24:34.865Z,5.3
2018-11-14T17:29:37.189Z,5.2
2018-11-14T17:34:39.682Z,5.1
2018-11-14T17:44:44.515Z,5
